createdAt,value
2023-01-27T00:00:51.129Z,0.99
2023-01-27T00:03:18.592Z,1.00
2023-01-27T00:05:46.905Z,1.00
2023-01-27T00:08:14.707Z,1.03
2023-01-27T00:10:41.934Z,1.05
2023-01-27T00:13:28.384Z,1.03
2023-01-27T00:15:56.218Z,1.00
2023-01-27T00:18:24.015Z,1.03
2023-01-27T00:21:10.715Z,1.03
2023-01-27T00:23:56.506Z,1.01
2023-01-27T00:26:23.712Z,0.99
2023-01-27T00:28:50.943Z,1.02
2023-01-27T00:31:38.025Z,1.03
2023-01-27T00:34:11.951Z,0.98
2023-01-27T00:36:41.297Z,1.04
2023-01-27T00:39:11.013Z,0.95
2023-01-27T00:41:39.898Z,0.92
2023-01-27T00:44:07.579Z,0.96
2023-01-27T00:46:35.096Z,0.93
2023-01-27T00:49:02.215Z,0.89
2023-01-27T00:51:30.719Z,0.93
2023-01-27T00:53:59.465Z,0.94
2023-01-27T00:56:28.376Z,0.93
2023-01-27T00:58:55.892Z,0.92
2023-01-27T01:01:23.736Z,0.92
2023-01-27T01:03:50.955Z,0.87
2023-01-27T01:06:19.234Z,0.83
2023-01-27T01:08:48.986Z,0.85
2023-01-27T01:11:17.618Z,0.87
2023-01-27T01:13:46.153Z,0.87
2023-01-27T01:16:22.501Z,0.76
2023-01-27T01:18:49.800Z,0.76
2023-01-27T01:21:17.181Z,0.81
2023-01-27T01:23:46.297Z,0.81
2023-01-27T01:26:15.379Z,0.82
2023-01-27T01:28:44.763Z,0.78
2023-01-27T01:31:18.143Z,0.83
2023-01-27T01:33:46.061Z,0.83
2023-01-27T01:36:16.279Z,0.73
2023-01-27T01:38:43.500Z,0.77
2023-01-27T01:41:19.856Z,0.75
2023-01-27T01:43:47.495Z,0.73
2023-01-27T01:46:14.658Z,0.74
2023-01-27T01:48:57.581Z,0.73
2023-01-27T01:52:09.781Z,0.73
2023-01-27T01:54:42.201Z,0.76
2023-01-27T01:57:22.259Z,0.77
2023-01-27T02:00:03.548Z,0.59
2023-01-27T02:02:41.146Z,0.76
2023-01-27T02:05:21.989Z,0.74
2023-01-27T02:08:05.095Z,0.74
2023-01-27T02:10:34.203Z,0.74
2023-01-27T02:13:01.721Z,0.76
2023-01-27T02:15:33.225Z,0.71
2023-01-27T02:18:01.826Z,0.70
2023-01-27T02:20:41.577Z,0.61
2023-01-27T02:23:28.018Z,0.74
2023-01-27T02:26:05.471Z,0.72
2023-01-27T02:28:33.522Z,0.71
2023-01-27T02:31:01.223Z,0.73
2023-01-27T02:33:28.586Z,0.71
2023-01-27T02:35:55.591Z,0.70
2023-01-27T02:38:23.680Z,0.69
2023-01-27T02:40:55.325Z,0.65
2023-01-27T02:43:22.469Z,0.70
2023-01-27T02:45:49.631Z,0.67
2023-01-27T02:48:16.844Z,0.65
2023-01-27T02:50:44.075Z,0.58
2023-01-27T02:53:11.645Z,0.70
2023-01-27T02:55:38.845Z,0.65
2023-01-27T02:58:06.978Z,0.69
2023-01-27T03:00:47.180Z,0.71
2023-01-27T03:03:14.324Z,0.69
2023-01-27T03:05:41.903Z,0.70
2023-01-27T03:08:09.226Z,0.67
2023-01-27T03:10:36.592Z,0.71
2023-01-27T03:13:04.079Z,0.68
2023-01-27T03:15:49.693Z,0.71
2023-01-27T03:18:17.502Z,0.69
2023-01-27T03:20:47.067Z,0.73
2023-01-27T03:23:19.181Z,0.74
2023-01-27T03:25:50.050Z,0.74
2023-01-27T03:28:17.420Z,0.76
2023-01-27T03:31:08.128Z,0.74
2023-01-27T03:33:53.351Z,0.66
2023-01-27T03:36:45.413Z,0.68
2023-01-27T03:39:31.399Z,0.72
2023-01-27T03:42:17.038Z,0.68
2023-01-27T03:45:03.314Z,0.72
2023-01-27T03:47:30.534Z,0.57
2023-01-27T03:49:57.772Z,0.75
2023-01-27T03:52:24.873Z,0.78
2023-01-27T03:54:51.944Z,0.77
2023-01-27T03:57:19.119Z,0.79
2023-01-27T03:59:46.192Z,0.76
2023-01-27T04:02:32.125Z,0.82
2023-01-27T04:05:17.587Z,0.80
2023-01-27T04:07:44.672Z,0.85
2023-01-27T04:10:11.887Z,0.85
2023-01-27T04:12:39.010Z,0.83
2023-01-27T04:15:06.743Z,0.82
2023-01-27T04:17:39.128Z,0.78
2023-01-27T04:20:06.766Z,0.76
2023-01-27T04:22:33.918Z,0.79
2023-01-27T04:25:00.978Z,0.77
2023-01-27T04:27:28.185Z,0.76
2023-01-27T04:29:55.284Z,0.81
2023-01-27T04:32:22.417Z,0.80
2023-01-27T04:34:49.558Z,0.77
2023-01-27T04:37:16.644Z,0.77
2023-01-27T04:39:45.905Z,0.72
2023-01-27T04:42:13.107Z,0.70
2023-01-27T04:44:40.414Z,0.73
2023-01-27T04:47:07.610Z,0.76
2023-01-27T04:49:34.677Z,0.77
2023-01-27T04:52:01.765Z,0.77
2023-01-27T04:54:28.795Z,0.77
2023-01-27T04:57:01.399Z,0.77
2023-01-27T04:59:28.604Z,0.73
2023-01-27T05:01:56.051Z,0.78
2023-01-27T05:04:23.278Z,0.67
2023-01-27T05:06:50.342Z,0.77
2023-01-27T05:09:17.583Z,0.77
2023-01-27T05:11:44.780Z,0.79
2023-01-27T05:14:14.094Z,0.79
2023-01-27T05:16:41.345Z,0.77
2023-01-27T05:19:09.452Z,0.80
2023-01-27T05:21:36.659Z,0.70
2023-01-27T05:24:03.904Z,0.60
2023-01-27T05:26:31.040Z,0.80
2023-01-27T05:28:59.083Z,0.72
2023-01-27T05:31:29.278Z,0.76
2023-01-27T05:33:58.518Z,0.79
2023-01-27T05:36:26.788Z,0.76
2023-01-27T05:38:55.092Z,0.75
2023-01-27T05:41:22.999Z,0.76
2023-01-27T05:43:55.277Z,0.68
2023-01-27T05:46:27.759Z,0.76
2023-01-27T05:48:57.013Z,0.76
2023-01-27T05:51:26.033Z,0.68
2023-01-27T05:53:54.108Z,0.73
2023-01-27T05:56:21.952Z,0.72
2023-01-27T05:58:49.488Z,0.74
2023-01-27T06:01:19.300Z,0.71
2023-01-27T06:03:47.063Z,0.74
2023-01-27T06:06:16.344Z,0.76
2023-01-27T06:08:44.164Z,0.78
2023-01-27T06:11:11.687Z,0.75
2023-01-27T06:13:39.851Z,0.74
2023-01-27T06:16:12.389Z,0.70
2023-01-27T06:18:40.323Z,0.71
2023-01-27T06:21:10.104Z,0.73
2023-01-27T06:23:38.087Z,0.71
2023-01-27T06:26:16.651Z,0.75
2023-01-27T06:28:44.286Z,0.70
2023-01-27T06:31:14.265Z,0.74
2023-01-27T06:33:41.811Z,0.76
2023-01-27T06:36:12.130Z,0.76
2023-01-27T06:38:39.445Z,0.79
2023-01-27T06:41:06.767Z,0.66
2023-01-27T06:43:34.255Z,0.73
2023-01-27T06:46:04.383Z,0.73
2023-01-27T06:48:32.648Z,0.66
2023-01-27T06:50:59.984Z,0.72
2023-01-27T06:53:27.628Z,0.55
2023-01-27T06:56:01.658Z,0.65
2023-01-27T06:58:29.921Z,0.68
2023-01-27T07:00:57.808Z,0.53
2023-01-27T07:03:26.126Z,0.69
2023-01-27T07:05:53.854Z,0.71
2023-01-27T07:08:21.033Z,0.66
2023-01-27T07:10:48.181Z,0.70
2023-01-27T07:13:15.899Z,0.73
2023-01-27T07:15:43.294Z,0.73
2023-01-27T07:18:13.895Z,0.72
2023-01-27T07:20:41.707Z,0.74
2023-01-27T07:23:10.133Z,0.65
2023-01-27T07:25:37.296Z,0.75
2023-01-27T07:28:04.623Z,0.58
2023-01-27T07:30:34.053Z,0.61
2023-01-27T07:33:09.573Z,0.63
2023-01-27T07:35:38.193Z,0.65
2023-01-27T07:38:07.103Z,0.63
2023-01-27T07:40:34.966Z,0.61
2023-01-27T07:43:02.711Z,0.55
2023-01-27T07:45:30.626Z,0.55
2023-01-27T07:48:04.955Z,0.54
2023-01-27T07:50:32.178Z,0.52
2023-01-27T07:53:04.012Z,0.53
2023-01-27T07:55:33.164Z,0.60
2023-01-27T07:58:00.516Z,0.62
2023-01-27T08:00:29.213Z,0.65
2023-01-27T08:02:57.932Z,0.64
2023-01-27T08:05:26.108Z,0.59
2023-01-27T08:07:54.762Z,0.55
2023-01-27T08:10:22.719Z,0.51
2023-01-27T08:12:49.868Z,0.52
2023-01-27T08:15:18.970Z,0.50
2023-01-27T08:17:56.574Z,0.49
2023-01-27T08:20:25.993Z,0.46
2023-01-27T08:22:53.334Z,0.42
2023-01-27T08:25:20.617Z,0.36
2023-01-27T08:27:55.659Z,0.38
2023-01-27T08:30:23.306Z,0.37
2023-01-27T08:32:50.506Z,0.34
2023-01-27T08:35:17.862Z,0.31
2023-01-27T08:37:48.461Z,0.34
2023-01-27T08:40:15.924Z,0.32
2023-01-27T08:42:43.056Z,0.27
2023-01-27T08:45:10.533Z,0.30
2023-01-27T08:47:37.612Z,0.28
2023-01-27T08:50:04.857Z,0.28
2023-01-27T08:52:32.017Z,0.26
2023-01-27T08:54:59.214Z,0.31
2023-01-27T08:57:26.569Z,0.23
2023-01-27T08:59:53.630Z,0.32
2023-01-27T09:02:22.570Z,0.26
2023-01-27T09:04:49.720Z,0.36
2023-01-27T09:07:17.596Z,0.33
2023-01-27T09:09:48.732Z,0.36
2023-01-27T09:12:16.215Z,0.28
2023-01-27T09:14:43.400Z,0.37
2023-01-27T09:17:10.641Z,0.43
2023-01-27T09:19:37.621Z,0.37
2023-01-27T09:22:06.040Z,0.49
2023-01-27T09:24:33.312Z,0.46
2023-01-27T09:27:01.174Z,0.48
2023-01-27T09:29:29.496Z,0.49
2023-01-27T09:31:56.744Z,0.52
2023-01-27T09:34:23.877Z,0.53
2023-01-27T09:36:57.782Z,0.58
2023-01-27T09:39:26.449Z,0.58
2023-01-27T09:42:14.684Z,0.58
2023-01-27T09:44:41.744Z,0.58
2023-01-27T09:47:11.785Z,0.57
2023-01-27T09:50:10.907Z,0.56
2023-01-27T09:53:01.642Z,0.58
2023-01-27T09:55:31.634Z,0.60
2023-01-27T09:58:09.266Z,0.63
2023-01-27T10:00:53.360Z,0.68
2023-01-27T10:03:38.842Z,0.67
2023-01-27T10:06:11.484Z,0.71
2023-01-27T10:08:50.741Z,0.74
2023-01-27T10:11:58.843Z,0.76
2023-01-27T10:14:47.393Z,0.80
2023-01-27T10:17:24.438Z,0.86
2023-01-27T10:19:57.423Z,0.92
2023-01-27T10:22:46.567Z,0.94
2023-01-27T10:25:32.672Z,0.94
2023-01-27T10:28:09.911Z,0.91
2023-01-27T10:30:38.538Z,0.87
2023-01-27T10:33:44.013Z,0.88
2023-01-27T10:36:50.549Z,0.91
2023-01-27T10:39:44.364Z,0.95
2023-01-27T10:42:23.404Z,0.98
2023-01-27T10:45:06.122Z,1.04
2023-01-27T10:47:39.140Z,1.05
2023-01-27T10:50:19.900Z,1.06
2023-01-27T10:52:58.275Z,1.14
2023-01-27T10:55:44.005Z,1.19
2023-01-27T10:58:34.345Z,1.20
2023-01-27T11:01:20.305Z,1.18
2023-01-27T11:03:55.056Z,1.16
2023-01-27T11:06:27.571Z,1.20
2023-01-27T11:09:05.693Z,1.25
2023-01-27T11:11:46.693Z,1.33
2023-01-27T11:14:27.752Z,1.41
2023-01-27T11:17:08.426Z,1.40
2023-01-27T11:19:45.109Z,1.32
2023-01-27T11:22:24.480Z,1.28
2023-01-27T11:25:30.033Z,1.26
2023-01-27T11:28:31.439Z,1.28
2023-01-27T11:31:14.297Z,1.19
2023-01-27T11:34:11.002Z,1.27
2023-01-27T11:36:38.246Z,1.24
2023-01-27T11:39:06.938Z,1.27
2023-01-27T11:41:38.920Z,1.23
2023-01-27T11:44:22.469Z,1.18
2023-01-27T11:46:51.060Z,1.16
2023-01-27T11:49:28.707Z,1.14
2023-01-27T11:52:11.354Z,1.15
2023-01-27T11:54:47.099Z,1.19
2023-01-27T11:57:22.584Z,1.15
2023-01-27T11:59:55.772Z,1.19
2023-01-27T12:02:44.871Z,1.18
2023-01-27T12:05:19.306Z,1.19
2023-01-27T12:07:56.568Z,1.24
2023-01-27T12:10:35.443Z,1.27
2023-01-27T12:13:10.193Z,1.30
2023-01-27T12:15:47.360Z,1.25
2023-01-27T12:18:15.802Z,1.26
2023-01-27T12:20:49.554Z,1.27
2023-01-27T12:23:19.456Z,1.27
2023-01-27T12:25:51.159Z,1.26
2023-01-27T12:28:52.432Z,1.16
2023-01-27T12:31:30.397Z,1.20
2023-01-27T12:34:13.539Z,1.21
2023-01-27T12:36:43.598Z,1.19
2023-01-27T12:39:57.227Z,1.21
2023-01-27T12:42:43.025Z,1.22
2023-01-27T12:45:31.344Z,1.26
2023-01-27T12:48:13.039Z,1.24
2023-01-27T12:50:42.215Z,1.24
2023-01-27T12:53:17.629Z,1.30
2023-01-27T12:56:00.283Z,1.31
2023-01-27T12:58:40.586Z,1.30
2023-01-27T13:01:34.140Z,1.30
2023-01-27T13:04:03.935Z,1.29
2023-01-27T13:06:37.647Z,1.30
2023-01-27T13:09:05.354Z,1.33
2023-01-27T13:11:39.777Z,1.36
2023-01-27T13:14:18.015Z,1.36
2023-01-27T13:16:53.288Z,1.31
2023-01-27T13:19:23.195Z,1.35
2023-01-27T13:21:53.537Z,1.36
2023-01-27T13:24:29.661Z,1.35
2023-01-27T13:26:57.957Z,1.28
2023-01-27T13:29:30.748Z,1.24
2023-01-27T13:32:11.827Z,1.21
2023-01-27T13:34:45.978Z,1.17
2023-01-27T13:37:38.005Z,1.24
2023-01-27T13:40:32.343Z,1.22
2023-01-27T13:43:24.921Z,1.19
2023-01-27T13:46:00.502Z,1.19
2023-01-27T13:48:33.473Z,1.20
2023-01-27T13:51:03.740Z,1.20
2023-01-27T13:53:31.101Z,1.22
2023-01-27T13:56:37.291Z,1.20
2023-01-27T13:59:13.155Z,1.17
2023-01-27T14:01:47.019Z,1.16
2023-01-27T14:04:32.665Z,1.08
2023-01-27T14:07:22.740Z,1.14
2023-01-27T14:09:59.052Z,1.10
2023-01-27T14:13:04.391Z,1.04
2023-01-27T14:15:40.581Z,1.10
2023-01-27T14:18:27.831Z,1.12
2023-01-27T14:21:13.223Z,1.09
2023-01-27T14:24:01.369Z,1.10
2023-01-27T14:26:56.634Z,1.09
2023-01-27T14:29:54.795Z,1.02
2023-01-27T14:32:34.202Z,1.03
2023-01-27T14:35:32.137Z,0.99
2023-01-27T14:38:23.427Z,1.01
2023-01-27T14:41:21.434Z,0.97
2023-01-27T14:43:59.876Z,0.85
2023-01-27T14:46:44.885Z,0.91
2023-01-27T14:49:32.152Z,0.92
2023-01-27T14:52:12.426Z,0.93
2023-01-27T14:55:18.021Z,0.96
2023-01-27T14:58:23.179Z,0.95
2023-01-27T15:01:14.857Z,0.92
2023-01-27T15:04:03.248Z,0.92
2023-01-27T15:06:38.133Z,0.92
2023-01-27T15:09:30.271Z,0.87
2023-01-27T15:12:16.738Z,0.87
2023-01-27T15:14:49.622Z,0.83
2023-01-27T15:17:37.850Z,0.79
2023-01-27T15:20:30.835Z,0.77
2023-01-27T15:23:40.302Z,0.74
2023-01-27T15:26:09.979Z,0.75
2023-01-27T15:28:40.274Z,0.76
2023-01-27T15:31:24.298Z,0.68
2023-01-27T15:34:03.715Z,0.75
2023-01-27T15:36:58.901Z,0.76
2023-01-27T15:39:40.494Z,0.72
2023-01-27T15:42:11.558Z,0.69
2023-01-27T15:44:41.710Z,0.68
2023-01-27T15:47:17.547Z,0.66
2023-01-27T15:49:52.058Z,0.64
2023-01-27T15:52:51.526Z,0.64
2023-01-27T15:55:26.128Z,0.64
2023-01-27T15:58:04.694Z,0.66
2023-01-27T16:00:38.290Z,0.63
2023-01-27T16:03:19.800Z,0.63
2023-01-27T16:05:52.432Z,0.62
2023-01-27T16:08:20.636Z,0.61
2023-01-27T16:10:47.832Z,0.59
2023-01-27T16:13:26.500Z,0.53
2023-01-27T16:16:19.883Z,0.57
2023-01-27T16:19:11.099Z,0.58
2023-01-27T16:21:51.413Z,0.56
2023-01-27T16:24:24.480Z,0.54
2023-01-27T16:27:07.603Z,0.51
2023-01-27T16:29:47.586Z,0.53
2023-01-27T16:32:20.908Z,0.52
2023-01-27T16:34:54.463Z,0.53
2023-01-27T16:37:28.075Z,0.54
2023-01-27T16:39:55.177Z,0.49
2023-01-27T16:42:30.937Z,0.42
2023-01-27T16:45:02.644Z,0.13
2023-01-27T16:47:44.055Z,0.36
2023-01-27T16:50:36.196Z,0.40
2023-01-27T16:53:05.840Z,0.36
2023-01-27T16:55:32.989Z,0.33
2023-01-27T16:58:01.874Z,0.32
2023-01-27T17:00:32.528Z,0.25
2023-01-27T17:03:03.956Z,0.21
2023-01-27T17:05:31.360Z,0.22
2023-01-27T17:08:30.627Z,0.22
2023-01-27T17:11:05.152Z,0.20
2023-01-27T17:13:44.669Z,0.15
2023-01-27T17:16:22.478Z,0.18
2023-01-27T17:18:52.919Z,0.15
2023-01-27T17:21:48.475Z,0.15
2023-01-27T17:24:17.782Z,0.11
2023-01-27T17:26:48.351Z,0.06
2023-01-27T17:29:20.111Z,0.02
2023-01-27T17:31:47.820Z,-0.03
2023-01-27T17:34:19.544Z,-0.01
2023-01-27T17:37:15.339Z,-0.06
2023-01-27T17:39:43.558Z,-0.10
2023-01-27T17:42:15.871Z,-0.11
2023-01-27T17:44:44.215Z,-0.18
2023-01-27T17:47:18.505Z,-0.19
2023-01-27T17:49:48.437Z,-0.22
2023-01-27T17:52:25.101Z,-0.35
2023-01-27T17:54:52.578Z,-0.28
2023-01-27T17:57:37.231Z,-0.32
2023-01-27T18:00:12.687Z,-0.34
2023-01-27T18:02:45.514Z,-0.38
2023-01-27T18:05:21.004Z,-0.41
2023-01-27T18:07:48.783Z,-0.48
2023-01-27T18:10:28.034Z,-0.48
2023-01-27T18:12:55.334Z,-0.48
2023-01-27T18:15:37.585Z,-0.46
2023-01-27T18:18:26.305Z,-0.48
2023-01-27T18:21:08.426Z,-0.48
2023-01-27T18:23:36.522Z,-0.49
2023-01-27T18:26:42.520Z,-0.53
2023-01-27T18:29:22.914Z,-0.50
2023-01-27T18:32:10.426Z,-0.52
2023-01-27T18:34:46.479Z,-0.53
2023-01-27T18:37:25.334Z,-0.56
2023-01-27T18:39:52.858Z,-0.59
2023-01-27T18:42:21.589Z,-0.60
2023-01-27T18:44:53.513Z,-0.60
2023-01-27T18:47:20.639Z,-0.62
2023-01-27T18:49:57.975Z,-0.64
2023-01-27T18:52:25.415Z,-0.66
2023-01-27T18:54:58.802Z,-0.66
2023-01-27T18:57:25.902Z,-0.78
2023-01-27T18:59:53.068Z,-0.68
2023-01-27T19:02:20.804Z,-0.74
2023-01-27T19:04:48.273Z,-0.73
2023-01-27T19:07:17.972Z,-0.71
2023-01-27T19:09:46.988Z,-0.90
2023-01-27T19:12:14.265Z,-0.77
2023-01-27T19:14:42.149Z,-0.80
2023-01-27T19:17:24.415Z,-0.85
2023-01-27T19:19:51.766Z,-0.83
2023-01-27T19:22:20.905Z,-0.83
2023-01-27T19:24:48.811Z,-0.90
2023-01-27T19:27:17.950Z,-0.85
2023-01-27T19:29:45.225Z,-1.04
2023-01-27T19:32:14.602Z,-0.87
2023-01-27T19:34:42.034Z,-0.88
2023-01-27T19:37:19.181Z,-0.91
2023-01-27T19:39:47.040Z,-0.93
2023-01-27T19:42:16.042Z,-0.97
2023-01-27T19:44:43.343Z,-0.98
2023-01-27T19:47:12.589Z,-0.99
2023-01-27T19:49:40.633Z,-0.99
2023-01-27T19:52:07.956Z,-1.03
2023-01-27T19:54:35.302Z,-1.02
2023-01-27T19:57:02.509Z,-1.05
2023-01-27T19:59:29.643Z,-1.00
2023-01-27T20:01:57.200Z,-1.03
2023-01-27T20:04:24.497Z,-1.02
2023-01-27T20:06:51.645Z,-1.02
2023-01-27T20:09:21.590Z,-1.04
2023-01-27T20:11:48.741Z,-1.04
2023-01-27T20:14:26.073Z,-1.05
2023-01-27T20:16:53.270Z,-1.06
2023-01-27T20:19:20.425Z,-1.04
2023-01-27T20:21:47.629Z,-1.01
2023-01-27T20:24:19.457Z,-1.08
2023-01-27T20:26:47.061Z,-1.06
2023-01-27T20:29:14.427Z,-1.10
2023-01-27T20:31:42.179Z,-1.07
2023-01-27T20:34:09.453Z,-1.12
2023-01-27T20:36:36.675Z,-1.14
2023-01-27T20:39:04.101Z,-1.18
2023-01-27T20:41:31.300Z,-1.22
2023-01-27T20:44:00.705Z,-1.22
2023-01-27T20:46:29.253Z,-1.23
2023-01-27T20:48:58.373Z,-1.27
2023-01-27T20:51:25.491Z,-1.31
2023-01-27T20:53:52.757Z,-1.26
2023-01-27T20:56:23.017Z,-1.29
2023-01-27T20:58:50.926Z,-1.31
2023-01-27T21:01:20.639Z,-1.38
2023-01-27T21:03:48.437Z,-1.35
2023-01-27T21:06:17.939Z,-1.32
2023-01-27T21:08:45.090Z,-1.36
2023-01-27T21:11:13.235Z,-1.31
2023-01-27T21:13:40.470Z,-1.31
2023-01-27T21:16:08.603Z,-1.34
2023-01-27T21:18:36.804Z,-1.34
2023-01-27T21:21:04.810Z,-1.35
2023-01-27T21:23:33.905Z,-1.33
2023-01-27T21:26:11.866Z,-1.43
2023-01-27T21:28:38.995Z,-1.43
2023-01-27T21:31:12.010Z,-1.39
2023-01-27T21:33:40.886Z,-1.39
2023-01-27T21:36:10.761Z,-1.39
2023-01-27T21:38:38.415Z,-1.39
2023-01-27T21:41:14.314Z,-1.40
2023-01-27T21:43:59.783Z,-1.40
2023-01-27T21:46:26.868Z,-1.42
2023-01-27T21:48:54.023Z,-1.50
2023-01-27T21:51:21.863Z,-1.46
2023-01-27T21:53:49.007Z,-1.47
2023-01-27T21:56:16.192Z,-1.50
2023-01-27T21:58:43.259Z,-1.44
2023-01-27T22:01:10.969Z,-1.46
2023-01-27T22:03:38.590Z,-1.39
2023-01-27T22:06:07.299Z,-1.40
2023-01-27T22:08:35.200Z,-1.46
2023-01-27T22:11:06.690Z,-1.44
2023-01-27T22:13:34.168Z,-1.44
2023-01-27T22:16:02.251Z,-1.50
2023-01-27T22:18:29.968Z,-1.45
2023-01-27T22:21:00.782Z,-1.43
2023-01-27T22:23:28.006Z,-1.44
2023-01-27T22:25:55.229Z,-1.42
2023-01-27T22:28:26.886Z,-1.45
2023-01-27T22:30:54.714Z,-1.44
2023-01-27T22:33:21.919Z,-1.43
2023-01-27T22:35:49.050Z,-1.39
2023-01-27T22:38:16.202Z,-1.37
2023-01-27T22:40:43.330Z,-1.36
2023-01-27T22:43:10.902Z,-1.35
2023-01-27T22:45:39.132Z,-1.31
2023-01-27T22:48:06.234Z,-1.47
2023-01-27T22:50:33.273Z,-1.30
2023-01-27T22:53:00.470Z,-1.35
2023-01-27T22:55:27.494Z,-1.36
2023-01-27T22:57:54.600Z,-1.28
2023-01-27T23:00:21.748Z,-1.32
2023-01-27T23:02:48.993Z,-1.23
2023-01-27T23:05:16.554Z,-1.22
2023-01-27T23:07:43.771Z,-1.26
2023-01-27T23:10:11.277Z,-1.18
2023-01-27T23:12:38.422Z,-1.17
2023-01-27T23:15:06.195Z,-1.14
2023-01-27T23:17:33.325Z,-1.17
2023-01-27T23:20:00.395Z,-1.23
2023-01-27T23:22:27.529Z,-1.16
2023-01-27T23:24:54.605Z,-1.18
2023-01-27T23:27:21.793Z,-1.18
2023-01-27T23:29:48.903Z,-1.21
2023-01-27T23:32:16.014Z,-1.23
2023-01-27T23:34:43.147Z,-1.29
2023-01-27T23:37:10.283Z,-1.32
2023-01-27T23:39:37.428Z,-1.34
2023-01-27T23:42:04.693Z,-1.38
2023-01-27T23:44:31.716Z,-1.39
2023-01-27T23:46:58.841Z,-1.46
2023-01-27T23:49:25.891Z,-1.46
2023-01-27T23:51:53.056Z,-1.45
2023-01-27T23:54:20.095Z,-1.45
2023-01-27T23:56:47.226Z,-1.46
2023-01-27T23:59:14.384Z,-1.49
